Terminal Aerodrome Forecast
Issued by NWS

Home | Current Version | Previous Version | Text Only | Print | Product List | Glossary Off
Versions: 1 2 3 4 5 6 7 8 9 10 11 12 13 14 15 16

691
FTUS43 KUNR 161449 AAA
TAFGCC
TAF AMD
KGCC 161449Z 1615/1712 35005KT P6SM OVC010
      TEMPO 1615/1617 -SHRA OVC006
     FM161700 33007KT P6SM BKN020
     FM162300 32005KT P6SM SCT040
     FM170500 20005KT P6SM SKC=

USA.gov is the U.S. government's official web portal to all federal, state and local government web resources and services.